createdAt,value
2018-07-13T00:00:43.468Z,55.9
2018-07-13T00:01:33.787Z,55.8
2018-07-13T00:02:23.919Z,55.8
2018-07-13T00:03:14.205Z,55.8
2018-07-13T00:04:03.995Z,55.8
2018-07-13T00:04:54.078Z,55.8
2018-07-13T00:05:43.836Z,55.7
2018-07-13T00:06:33.907Z,55.7
2018-07-13T00:07:24.499Z,55.6
2018-07-13T00:08:14.556Z,55.7
2018-07-13T00:09:04.470Z,55.6
2018-07-13T00:09:54.707Z,55.6
2018-07-13T00:10:44.582Z,55.6
2018-07-13T00:11:34.289Z,55.6
2018-07-13T00:12:24.889Z,55.6
2018-07-13T00:13:14.722Z,55.6
2018-07-13T00:14:05.005Z,55.5
2018-07-13T00:14:54.861Z,55.5
2018-07-13T00:15:45.146Z,55.5
2018-07-13T00:16:34.368Z,55.4
2018-07-13T00:17:25.291Z,55.4
2018-07-13T00:18:15.338Z,55.4
2018-07-13T00:19:04.823Z,55.4
2018-07-13T00:19:55.455Z,55.4
2018-07-13T00:20:45.547Z,55.4
2018-07-13T00:21:35.567Z,55.3
2018-07-13T00:22:25.650Z,55.3
2018-07-13T00:23:15.725Z,55.3
2018-07-13T00:24:05.522Z,55.3
2018-07-13T00:24:55.311Z,55.3
2018-07-13T00:25:45.432Z,55.3
2018-07-13T00:26:35.997Z,55.3
2018-07-13T00:27:26.038Z,55.2
2018-07-13T00:28:15.826Z,55.2
2018-07-13T00:29:05.357Z,55.2
2018-07-13T00:29:56.227Z,55.1
2018-07-13T00:30:45.480Z,55.1
2018-07-13T00:31:35.860Z,55.1
2018-07-13T00:32:26.468Z,55.1
2018-07-13T00:33:16.523Z,55.1
2018-07-13T00:34:05.992Z,55.1
2018-07-13T00:34:56.342Z,55.1
2018-07-13T00:35:46.419Z,55.1
2018-07-13T00:36:36.492Z,55.1
2018-07-13T00:37:26.533Z,55
2018-07-13T00:38:16.959Z,55
2018-07-13T00:39:06.707Z,54.9
2018-07-13T00:39:56.752Z,54.9
2018-07-13T00:40:46.321Z,54.9
2018-07-13T00:41:36.848Z,54.9
2018-07-13T00:42:26.483Z,54.9
2018-07-13T00:43:17.243Z,54.9
2018-07-13T00:44:07.308Z,54.9
2018-07-13T00:44:57.405Z,54.8
2018-07-13T00:45:46.881Z,54.8
2018-07-13T00:46:37.270Z,54.8
2018-07-13T00:47:27.567Z,54.8
2018-07-13T00:48:17.361Z,54.8
2018-07-13T00:49:07.693Z,54.8
2018-07-13T00:49:57.755Z,54.7
2018-07-13T00:50:47.805Z,54.7
2018-07-13T00:51:37.339Z,54.7
2018-07-13T00:52:27.966Z,54.7
2018-07-13T00:53:17.790Z,54.7
2018-07-13T00:54:08.081Z,54.6
2018-07-13T00:54:58.184Z,54.6
2018-07-13T00:55:47.661Z,54.6
2018-07-13T00:56:37.714Z,54.6
2018-07-13T00:57:27.767Z,54.6
2018-07-13T00:58:18.128Z,54.5
2018-07-13T00:59:08.476Z,54.6
2018-07-13T00:59:58.215Z,54.5
2018-07-13T01:00:48.347Z,54.5
2018-07-13T01:01:38.370Z,54.5
2018-07-13T01:02:28.412Z,54.4
2018-07-13T01:03:18.522Z,54.5
2018-07-13T01:04:08.873Z,54.4
2018-07-13T01:04:58.633Z,54.4
2018-07-13T01:05:48.423Z,54.3
2018-07-13T01:06:38.764Z,54.4
2018-07-13T01:07:29.106Z,54.4
2018-07-13T01:08:19.164Z,54.4
2018-07-13T01:09:09.245Z,54.4
2018-07-13T01:09:59.072Z,54.3
2018-07-13T01:10:49.375Z,54.3
2018-07-13T01:11:38.920Z,54.3
2018-07-13T01:12:29.500Z,54.3
2018-07-13T01:13:19.532Z,54.3
2018-07-13T01:14:09.077Z,54.2
2018-07-13T01:14:59.679Z,54.2
2018-07-13T01:15:49.470Z,54.1
2018-07-13T01:16:39.528Z,54.2
2018-07-13T01:17:29.606Z,54.2
2018-07-13T01:18:19.638Z,54.1
2018-07-13T01:19:09.992Z,54.1
2018-07-13T01:20:00.062Z,54.1
2018-07-13T01:20:49.826Z,54.1
2018-07-13T01:21:39.981Z,54.1
2018-07-13T01:22:30.233Z,54
2018-07-13T01:23:20.015Z,54
2018-07-13T01:24:10.106Z,54
2018-07-13T01:25:00.435Z,54.1
2018-07-13T01:25:49.952Z,53.9
2018-07-13T01:26:40.608Z,53.9
2018-07-13T01:27:30.076Z,53.9
2018-07-13T01:28:20.428Z,53.9
2018-07-13T01:29:10.750Z,53.9
2018-07-13T01:30:00.805Z,53.9
2018-07-13T01:30:50.878Z,53.9
2018-07-13T01:31:40.667Z,53.9
2018-07-13T01:32:30.435Z,53.9
2018-07-13T01:33:21.046Z,53.9
2018-07-13T01:34:10.921Z,53.8
2018-07-13T01:35:01.179Z,53.8
2018-07-13T01:35:51.246Z,53.8
2018-07-13T01:36:40.782Z,53.8
2018-07-13T01:37:30.615Z,53.8
2018-07-13T01:38:21.425Z,53.8
2018-07-13T01:39:11.240Z,53.7
2018-07-13T01:40:01.296Z,53.8
2018-07-13T01:40:51.682Z,53.7
2018-07-13T01:41:41.692Z,53.6
2018-07-13T01:42:31.489Z,53.6
2018-07-13T01:43:21.785Z,53.6
2018-07-13T01:44:11.628Z,53.6
2018-07-13T01:45:01.448Z,53.6
2018-07-13T01:45:52.027Z,53.6
2018-07-13T01:46:42.082Z,53.6
2018-07-13T01:47:31.850Z,53.6
2018-07-13T01:48:21.929Z,53.6
2018-07-13T01:49:12.269Z,53.5
2018-07-13T01:50:02.327Z,53.5
2018-07-13T01:50:52.403Z,53.5
2018-07-13T01:51:42.173Z,53.4
2018-07-13T01:52:32.532Z,53.4
2018-07-13T01:53:22.632Z,53.4
2018-07-13T01:54:12.403Z,53.4
2018-07-13T01:55:02.506Z,53.4
2018-07-13T01:55:51.954Z,53.4
2018-07-13T01:56:42.866Z,53.4
2018-07-13T01:57:32.656Z,53.4
2018-07-13T01:58:22.140Z,53.3
2018-07-13T01:59:12.784Z,53.3
2018-07-13T02:00:03.114Z,53.3
2018-07-13T02:00:53.163Z,53.3
2018-07-13T02:01:42.978Z,53.3
2018-07-13T02:02:33.276Z,53.3
2018-07-13T02:03:23.440Z,53.3
2018-07-13T02:04:13.133Z,53.3
2018-07-13T02:05:03.588Z,53.3
2018-07-13T02:05:53.566Z,53.2
2018-07-13T02:06:43.355Z,53.2
2018-07-13T02:07:33.685Z,53.1
2018-07-13T02:08:23.464Z,53.1
2018-07-13T02:09:13.307Z,53.1
2018-07-13T02:10:03.873Z,53.1
2018-07-13T02:10:53.919Z,53.1
2018-07-13T02:11:43.758Z,53.1
2018-07-13T02:12:33.851Z,53.1
2018-07-13T02:13:23.867Z,53.1
2018-07-13T02:14:13.916Z,53.1
2018-07-13T02:15:03.404Z,53.1
2018-07-13T02:15:54.051Z,53
2018-07-13T02:16:43.849Z,53
2018-07-13T02:17:34.431Z,53
2018-07-13T02:18:23.955Z,52.9
2018-07-13T02:19:14.289Z,53
2018-07-13T02:20:04.383Z,52.9
2018-07-13T02:20:54.448Z,52.9
2018-07-13T02:21:44.795Z,52.9
2018-07-13T02:22:33.978Z,52.9
2018-07-13T02:23:24.390Z,52.9
2018-07-13T02:24:14.666Z,52.8
2018-07-13T02:25:05.013Z,52.9
2018-07-13T02:25:54.512Z,52.8
2018-07-13T02:26:45.115Z,52.8
2018-07-13T02:27:34.962Z,52.8
2018-07-13T02:28:25.271Z,52.8
2018-07-13T02:29:15.052Z,52.8
2018-07-13T02:30:05.428Z,52.8
2018-07-13T02:30:55.473Z,52.8
2018-07-13T02:31:45.539Z,52.8
2018-07-13T02:32:35.616Z,52.7
2018-07-13T02:33:25.395Z,52.7
2018-07-13T02:34:15.488Z,52.7
2018-07-13T02:35:05.236Z,52.7
2018-07-13T02:35:55.880Z,52.6
2018-07-13T02:36:45.524Z,52.6
2018-07-13T02:37:35.992Z,52.6
2018-07-13T02:38:25.782Z,52.6
2018-07-13T02:39:16.077Z,52.6
2018-07-13T02:40:06.220Z,52.6
2018-07-13T02:40:55.683Z,52.6
2018-07-13T02:41:45.753Z,52.6
2018-07-13T02:42:36.479Z,52.5
2018-07-13T02:43:26.164Z,52.5
2018-07-13T02:44:16.504Z,52.5
2018-07-13T02:45:06.590Z,52.4
2018-07-13T02:45:56.337Z,52.4
2018-07-13T02:46:46.487Z,52.4
2018-07-13T02:47:36.431Z,52.4
2018-07-13T02:48:26.808Z,52.4
2018-07-13T02:49:15.743Z,52.4
2018-07-13T02:51:46.538Z,52.4
2018-07-13T02:52:37.163Z,52.3
2018-07-13T02:54:16.973Z,52.3
2018-07-13T02:55:07.319Z,52.3
2018-07-13T02:55:57.362Z,52.2
2018-07-13T02:56:47.125Z,52.3
2018-07-13T02:57:36.945Z,52.3
2018-07-13T02:58:27.282Z,52.3
2018-07-13T02:59:17.627Z,52.3
2018-07-13T03:00:07.168Z,52.3
2018-07-13T03:00:57.486Z,52.2
2018-07-13T03:01:47.540Z,52.2
2018-07-13T03:02:37.868Z,52.2
2018-07-13T03:03:27.940Z,52.2
2018-07-13T03:04:17.717Z,52.2
2018-07-13T03:05:08.040Z,52.2
2018-07-13T03:05:58.141Z,52.1
2018-07-13T03:06:47.646Z,52.1
2018-07-13T03:07:37.710Z,52.1
2018-07-13T03:08:27.256Z,52.1
2018-07-13T03:09:18.427Z,52.1
2018-07-13T03:10:08.220Z,52.1
2018-07-13T03:10:58.548Z,52.1
2018-07-13T03:11:48.572Z,52
2018-07-13T03:12:38.655Z,52
2018-07-13T03:13:27.595Z,52.1
2018-07-13T03:14:18.571Z,52
2018-07-13T03:16:48.405Z,51.9
2018-07-13T03:17:39.071Z,51.8
2018-07-13T03:18:28.267Z,51.7
2018-07-13T03:19:19.188Z,51.6
2018-07-13T03:20:08.948Z,51.6
2018-07-13T03:20:59.018Z,51.5
2018-07-13T03:21:48.235Z,51.4
2018-07-13T03:22:38.900Z,51.4
2018-07-13T03:23:28.652Z,51.4
2018-07-13T03:24:18.713Z,51.4
2018-07-13T03:25:24.138Z,51.3
2018-07-13T03:25:59.679Z,51.3
2018-07-13T03:26:49.463Z,51.3
2018-07-13T03:27:39.515Z,51.3
2018-07-13T03:28:29.296Z,51.3
2018-07-13T03:29:19.907Z,51.1
2018-07-13T03:30:10.021Z,51.1
2018-07-13T03:31:00.039Z,51.1
2018-07-13T03:31:49.564Z,51.1
2018-07-13T03:32:39.892Z,51
2018-07-13T03:33:29.401Z,51
2018-07-13T03:34:20.101Z,50.9
2018-07-13T03:35:10.388Z,50.9
2018-07-13T03:36:00.201Z,50.9
2018-07-13T03:36:50.490Z,50.9
2018-07-13T03:37:39.985Z,50.9
2018-07-13T03:38:30.342Z,50.9
2018-07-13T19:59:35.413Z,57.9
2018-07-13T20:00:25.780Z,57.9
2018-07-13T20:01:15.815Z,57.9
2018-07-13T20:02:05.991Z,57.9
2018-07-13T20:02:56.356Z,57.9
2018-07-13T20:03:45.788Z,57.9
2018-07-13T20:04:35.829Z,57.9
2018-07-13T20:05:25.599Z,57.9
2018-07-13T20:06:16.216Z,57.9
2018-07-13T20:07:06.001Z,57.9
2018-07-13T20:07:56.341Z,57.9
2018-07-13T20:08:46.430Z,57.9
2018-07-13T20:09:36.219Z,57.9
2018-07-13T20:10:26.558Z,57.9
2018-07-13T20:11:17.087Z,57.9
2018-07-13T20:12:06.696Z,57.9
2018-07-13T20:12:56.294Z,57.9
2018-07-13T20:13:46.535Z,57.9
2018-07-13T20:14:36.943Z,57.9
2018-07-13T20:15:26.471Z,57.9
2018-07-13T20:16:16.524Z,57.8
2018-07-13T20:17:07.000Z,57.8
2018-07-13T20:17:56.861Z,57.9
2018-07-13T20:18:46.663Z,57.8
2018-07-13T20:19:36.992Z,57.8
2018-07-13T20:20:26.762Z,57.8
2018-07-13T20:21:16.909Z,57.8
2018-07-13T20:22:06.898Z,57.8
2018-07-13T20:22:56.406Z,57.8
2018-07-13T20:23:47.316Z,57.8
2018-07-13T20:25:27.744Z,57.8
2018-07-13T20:31:17.873Z,57.7
2018-07-13T20:34:38.406Z,57.7
2018-07-13T20:35:28.165Z,57.7
2018-07-13T20:36:18.236Z,57.7
2018-07-13T20:37:08.677Z,57.7
2018-07-13T20:37:58.715Z,57.7
2018-07-13T20:38:48.708Z,57.7
2018-07-13T20:39:38.527Z,57.7
2018-07-13T20:40:28.850Z,57.7
2018-07-13T20:41:18.439Z,57.7
2018-07-13T20:42:08.492Z,57.6
2018-07-13T20:42:58.017Z,57.7
2018-07-13T20:43:48.051Z,57.6
2018-07-13T20:44:38.924Z,57.6
2018-07-13T20:45:29.265Z,57.6
2018-07-13T20:46:19.341Z,57.6
2018-07-13T20:47:09.122Z,57.6
2018-07-13T20:47:58.604Z,57.6
2018-07-13T20:48:49.240Z,57.6
2018-07-13T20:49:39.309Z,57.6
2018-07-13T20:50:29.673Z,57.6
2018-07-13T20:51:19.683Z,57.6
2018-07-13T20:52:09.469Z,57.6
2018-07-13T20:52:59.571Z,57.6
2018-07-13T20:53:49.663Z,57.6
2018-07-13T20:54:39.685Z,57.6
2018-07-13T20:55:30.037Z,57.6
2018-07-13T20:56:19.793Z,57.6
2018-07-13T20:57:09.575Z,57.6
2018-07-13T20:58:00.216Z,57.6
2018-07-13T20:58:50.045Z,57.6
2018-07-13T20:59:39.807Z,57.6
2018-07-13T21:00:30.436Z,57.6
2018-07-13T21:01:19.946Z,57.6
2018-07-13T21:02:10.714Z,57.6
2018-07-13T21:03:01.592Z,57.5
2018-07-13T21:03:50.639Z,57.5
2018-07-13T21:04:40.697Z,57.5
2018-07-13T21:05:30.255Z,57.5
2018-07-13T21:06:20.882Z,57.5
2018-07-13T21:07:10.608Z,57.5
2018-07-13T21:08:00.708Z,57.5
2018-07-13T21:08:51.027Z,57.4
2018-07-13T21:09:41.115Z,57.5
2018-07-13T21:10:30.877Z,57.5
2018-07-13T21:11:21.210Z,57.4
2018-07-13T21:12:11.029Z,57.4
2018-07-13T21:13:01.061Z,57.4
2018-07-13T21:13:51.392Z,57.4
2018-07-13T21:14:41.544Z,57.4
2018-07-13T21:15:30.254Z,57.4
2018-07-13T21:16:20.857Z,57.4
2018-07-13T21:17:10.654Z,57.4
2018-07-13T21:18:01.008Z,57.4
2018-07-13T21:18:51.526Z,57.4
2018-07-13T21:19:41.891Z,57.4
2018-07-13T21:20:31.953Z,57.4
2018-07-13T21:21:22.039Z,57.4
2018-07-13T21:22:12.099Z,57.4
2018-07-13T21:23:01.910Z,57.4
2018-07-13T21:23:52.210Z,57.4
2018-07-13T21:24:41.766Z,57.4
2018-07-13T21:25:32.079Z,57.4
2018-07-13T21:26:22.481Z,57.4
2018-07-13T21:27:12.493Z,57.4
2018-07-13T21:28:02.560Z,57.4
2018-07-13T21:28:52.637Z,57.4
2018-07-13T21:29:42.192Z,57.3
2018-07-13T21:30:32.766Z,57.3
2018-07-13T21:31:22.798Z,57.3
2018-07-13T21:32:12.857Z,57.3
2018-07-13T21:33:02.944Z,57.3
2018-07-13T21:33:52.727Z,57.3
2018-07-13T21:34:42.226Z,57.3
2018-07-13T21:35:32.698Z,57.3
2018-07-13T21:36:22.209Z,57.3
2018-07-13T21:37:12.953Z,57.3
2018-07-13T21:38:02.471Z,57.3
2018-07-13T21:38:53.352Z,57.3
2018-07-13T21:39:43.392Z,57.3
2018-07-13T21:40:33.222Z,57.3
2018-07-13T21:41:23.264Z,57.3
2018-07-13T21:42:13.587Z,57.3
2018-07-13T21:43:03.187Z,57.3
2018-07-13T21:43:53.749Z,57.3
2018-07-13T21:44:43.807Z,57.3
2018-07-13T21:45:33.639Z,57.3
2018-07-13T21:46:23.383Z,57.3
2018-07-13T21:47:13.969Z,57.3
2018-07-13T21:48:03.038Z,57.2
2018-07-13T21:48:53.351Z,57.2
2018-07-13T21:49:43.436Z,57.2
2018-07-13T21:50:34.296Z,57.2
2018-07-13T21:51:23.566Z,57.2
2018-07-13T21:52:15.368Z,57.2
2018-07-13T21:53:03.878Z,57.2
2018-07-13T21:53:54.505Z,57.2
2018-07-13T21:54:44.021Z,57.2
2018-07-13T21:55:34.348Z,57.1
2018-07-13T21:56:24.685Z,57.1
2018-07-13T21:57:14.479Z,57.1
2018-07-13T21:58:04.839Z,57.1
2018-07-13T21:58:54.937Z,57.1
2018-07-13T21:59:44.963Z,57.1
2018-07-13T22:00:35.043Z,57.1
2018-07-13T22:01:24.285Z,57.1
2018-07-13T22:02:14.913Z,57.1
2018-07-13T22:03:05.310Z,57.1
2018-07-13T22:03:54.473Z,57.1
2018-07-13T22:04:45.371Z,57.1
2018-07-13T22:05:35.213Z,57.1
2018-07-13T22:06:25.519Z,57.1
2018-07-13T22:07:14.806Z,57.1
2018-07-13T22:08:05.059Z,57.1
2018-07-13T22:08:55.385Z,57.1
2018-07-13T22:09:45.466Z,57.1
2018-07-13T22:10:35.824Z,57.1
2018-07-13T22:11:25.597Z,57.1
2018-07-13T22:12:15.445Z,57.1
2018-07-13T22:13:05.243Z,57
2018-07-13T22:13:54.950Z,57
2018-07-13T22:14:45.376Z,57
2018-07-13T22:15:35.959Z,57
2018-07-13T22:16:25.963Z,57
2018-07-13T22:17:16.324Z,57
2018-07-13T22:18:06.390Z,57
2018-07-13T22:18:56.145Z,57
2018-07-13T22:19:46.220Z,57
2018-07-13T22:20:36.381Z,57
2018-07-13T22:21:26.402Z,57
2018-07-13T22:22:16.484Z,57
2018-07-13T22:23:06.618Z,57
2018-07-13T22:23:57.418Z,56.9
2018-07-13T22:24:46.616Z,56.9
2018-07-13T22:25:37.071Z,56.9
2018-07-13T22:26:27.416Z,56.9
2018-07-13T22:27:17.063Z,56.9
2018-07-13T22:28:07.129Z,56.9
2018-07-13T22:28:56.681Z,56.9
2018-07-13T22:29:47.288Z,56.9
2018-07-13T22:30:37.322Z,56.9
2018-07-13T22:31:27.129Z,56.9
2018-07-13T22:32:17.191Z,56.9
2018-07-13T22:33:07.561Z,56.9
2018-07-13T22:33:57.584Z,56.9
2018-07-13T22:34:47.388Z,56.9
2018-07-13T22:35:37.442Z,56.9
2018-07-13T22:36:27.786Z,56.9
2018-07-13T22:37:17.045Z,56.9
2018-07-13T22:38:07.376Z,56.9
2018-07-13T22:38:57.974Z,56.9
2018-07-13T22:39:47.820Z,56.9
2018-07-13T22:40:37.560Z,56.9
2018-07-13T22:41:28.190Z,56.8
2018-07-13T22:42:17.977Z,56.9
2018-07-13T22:43:08.289Z,56.8
2018-07-13T22:43:58.385Z,56.8
2018-07-13T22:44:47.365Z,56.8
2018-07-13T22:45:38.515Z,56.8
2018-07-13T22:46:28.272Z,56.8
2018-07-13T22:47:18.373Z,56.8
2018-07-13T22:48:08.154Z,56.8
2018-07-13T22:48:58.773Z,56.8
2018-07-13T22:49:48.568Z,56.8
2018-07-13T22:50:38.577Z,56.8
2018-07-13T22:51:28.660Z,56.8
2018-07-13T22:52:18.465Z,56.8
2018-07-13T22:53:09.059Z,56.8
2018-07-13T22:53:59.119Z,56.8
2018-07-13T22:54:48.643Z,56.8
2018-07-13T22:55:39.250Z,56.8
2018-07-13T22:56:29.311Z,56.7
2018-07-13T22:57:19.398Z,56.7
2018-07-13T22:58:08.974Z,56.7
2018-07-13T22:58:59.036Z,56.8
2018-07-13T22:59:49.088Z,56.7
2018-07-13T23:00:39.217Z,56.7
2018-07-13T23:01:28.981Z,56.7
2018-07-13T23:02:18.743Z,56.7
2018-07-13T23:03:08.560Z,56.7
2018-07-13T23:03:59.920Z,56.7
2018-07-13T23:04:49.704Z,56.7
2018-07-13T23:05:40.019Z,56.7
2018-07-13T23:06:29.544Z,56.7
2018-07-13T23:07:19.902Z,56.7
2018-07-13T23:08:10.225Z,56.7
2018-07-13T23:08:59.519Z,56.6
2018-07-13T23:09:50.079Z,56.6
2018-07-13T23:10:39.883Z,56.6
2018-07-13T23:11:30.253Z,56.6
2018-07-13T23:12:20.562Z,56.6
2018-07-13T23:13:10.368Z,56.6
2018-07-13T23:14:00.710Z,56.6
2018-07-13T23:14:50.485Z,56.6
2018-07-13T23:15:40.839Z,56.6
2018-07-13T23:16:30.879Z,56.6
2018-07-13T23:17:20.670Z,56.6
2018-07-13T23:18:11.023Z,56.6
2018-07-13T23:19:00.524Z,56.6
2018-07-13T23:19:50.570Z,56.6
2018-07-13T23:20:41.183Z,56.6
2018-07-13T23:21:30.700Z,56.6
2018-07-13T23:22:21.477Z,56.6
2018-07-13T23:23:11.450Z,56.6
2018-07-13T23:24:02.125Z,56.6
2018-07-13T23:24:51.273Z,56.6
2018-07-13T23:25:41.627Z,56.5
2018-07-13T23:26:31.377Z,56.5
2018-07-13T23:27:21.155Z,56.6
2018-07-13T23:28:11.232Z,56.5
2018-07-13T23:29:00.995Z,56.5
2018-07-13T23:29:51.880Z,56.5
2018-07-13T23:30:41.942Z,56.5
2018-07-13T23:31:31.745Z,56.5
2018-07-13T23:32:21.824Z,56.5
2018-07-13T23:33:11.593Z,56.5
2018-07-13T23:34:02.271Z,56.5
2018-07-13T23:34:51.720Z,56.5
2018-07-13T23:35:41.546Z,56.4
2018-07-13T23:36:32.424Z,56.4
2018-07-13T23:37:22.218Z,56.4
2018-07-13T23:38:12.275Z,56.4
2018-07-13T23:39:02.326Z,56.4
2018-07-13T23:39:52.664Z,56.4
2018-07-13T23:40:42.471Z,56.4
2018-07-13T23:41:32.503Z,56.4
2018-07-13T23:42:22.873Z,56.4
2018-07-13T23:43:12.666Z,56.4
2018-07-13T23:44:02.967Z,56.4
2018-07-13T23:44:52.521Z,56.4
2018-07-13T23:45:42.881Z,56.4
2018-07-13T23:46:32.646Z,56.4
2018-07-13T23:47:22.738Z,56.4
2018-07-13T23:48:12.791Z,56.4
2018-07-13T23:49:03.165Z,56.4
2018-07-13T23:49:52.991Z,56.4
2018-07-13T23:50:42.757Z,56.4
2018-07-13T23:51:33.342Z,56.4
2018-07-13T23:52:22.887Z,56.4
2018-07-13T23:53:12.948Z,56.3
2018-07-13T23:54:02.455Z,56.3
2018-07-13T23:54:53.080Z,56.3
2018-07-13T23:55:43.623Z,56.3
2018-07-13T23:56:33.717Z,56.3
2018-07-13T23:57:23.785Z,56.3
2018-07-13T23:58:13.814Z,56.3
2018-07-13T23:59:04.138Z,56.3
2018-07-13T23:59:53.679Z,56.3
